createdAt,value
2023-04-05T00:00:40.845Z,48.00
2023-04-05T00:03:30.443Z,48.00
2023-04-05T00:06:22.053Z,47.90
2023-04-05T00:09:11.379Z,47.80
2023-04-05T00:12:02.208Z,48.00
2023-04-05T00:14:51.489Z,47.90
2023-04-05T00:17:41.181Z,47.90
2023-04-05T00:20:30.501Z,47.90
2023-04-05T00:23:21.387Z,47.90
2023-04-05T00:26:10.789Z,47.90
2023-04-05T00:29:02.208Z,47.90
2023-04-05T00:31:51.575Z,48.00
2023-04-05T00:34:40.852Z,48.00
2023-04-05T00:37:30.184Z,47.90
2023-04-05T00:40:19.758Z,48.00
2023-04-05T00:43:09.022Z,47.90
2023-04-05T00:46:00.285Z,47.90
2023-04-05T00:48:49.916Z,48.00
2023-04-05T00:51:39.319Z,47.90
2023-04-05T00:54:30.640Z,47.90
2023-04-05T00:57:20.508Z,47.80
2023-04-05T01:00:11.996Z,47.90
2023-04-05T01:03:05.429Z,47.90
2023-04-05T01:06:05.872Z,47.90
2023-04-05T01:09:07.455Z,47.90
2023-04-05T01:12:00.936Z,47.90
2023-04-05T01:14:53.072Z,47.90
2023-04-05T01:17:42.682Z,47.90
2023-04-05T01:20:45.009Z,47.90
2023-04-05T01:23:44.035Z,47.80
2023-04-05T01:27:07.802Z,47.90
2023-04-05T01:30:06.267Z,47.90
2023-04-05T01:33:11.235Z,47.90
2023-04-05T01:36:06.313Z,47.90
2023-04-05T01:39:00.464Z,47.90
2023-04-05T01:41:49.771Z,48.00
2023-04-05T01:44:39.118Z,48.00
2023-04-05T01:47:29.810Z,48.10
2023-04-05T01:50:19.841Z,48.00
2023-04-05T01:53:09.819Z,48.70
2023-04-05T01:56:02.491Z,48.00
2023-04-05T01:58:51.827Z,48.00
2023-04-05T02:01:41.709Z,48.00
2023-04-05T02:04:32.444Z,47.80
2023-04-05T02:07:21.778Z,47.90
2023-04-05T02:10:11.512Z,48.00
2023-04-05T02:13:01.766Z,48.00
2023-04-05T02:15:53.462Z,48.00
2023-04-05T02:18:43.661Z,48.00
2023-04-05T02:21:34.441Z,48.10
2023-04-05T02:24:26.767Z,48.10
2023-04-05T02:27:16.082Z,48.10
2023-04-05T02:30:06.597Z,48.10
2023-04-05T02:32:56.144Z,48.10
2023-04-05T02:35:46.029Z,48.10
2023-04-05T02:38:37.315Z,48.10
2023-04-05T02:41:27.019Z,48.20
2023-04-05T02:44:16.324Z,48.10
2023-04-05T02:47:05.857Z,48.10
2023-04-05T02:49:55.491Z,48.10
2023-04-05T02:52:46.965Z,48.00
2023-04-05T02:55:37.675Z,48.00
2023-04-05T02:58:27.349Z,48.00
2023-04-05T03:01:17.906Z,48.00
2023-04-05T03:04:08.378Z,48.00
2023-04-05T03:06:57.687Z,48.10
2023-04-05T03:09:48.569Z,48.10
2023-04-05T03:12:40.389Z,48.20
2023-04-05T03:15:32.221Z,48.80
2023-04-05T03:18:25.863Z,48.10
2023-04-05T03:21:18.198Z,48.10
2023-04-05T03:24:17.433Z,48.10
2023-04-05T03:27:07.514Z,48.00
2023-04-05T03:30:07.663Z,48.00
2023-04-05T03:33:03.077Z,48.10
2023-04-05T03:36:11.481Z,48.10
2023-04-05T03:39:01.730Z,48.10
2023-04-05T03:41:51.105Z,48.10
2023-04-05T03:44:40.359Z,48.00
2023-04-05T03:47:31.110Z,47.90
2023-04-05T03:50:23.819Z,48.10
2023-04-05T03:53:17.462Z,48.00
2023-04-05T03:56:09.835Z,48.00
2023-04-05T03:59:06.601Z,48.00
2023-04-05T04:01:55.979Z,48.00
2023-04-05T04:04:48.680Z,48.10
2023-04-05T04:07:38.212Z,48.10
2023-04-05T04:10:27.682Z,48.10
2023-04-05T04:13:20.249Z,48.10
2023-04-05T04:16:18.128Z,48.10
2023-04-05T04:19:25.946Z,48.10
2023-04-05T04:22:33.214Z,48.20
2023-04-05T04:25:54.691Z,48.20
2023-04-05T04:28:56.501Z,48.20
2023-04-05T04:32:07.012Z,48.30
2023-04-05T04:35:18.260Z,48.30
2023-04-05T04:38:26.013Z,48.30
2023-04-05T04:41:35.847Z,48.30
2023-04-05T04:44:31.395Z,48.40
2023-04-05T04:47:44.391Z,48.40
2023-04-05T04:51:09.310Z,48.50
2023-04-05T04:54:00.049Z,48.50
2023-04-05T04:56:49.514Z,48.50
2023-04-05T04:59:39.005Z,48.50
2023-04-05T05:02:31.406Z,49.20
2023-04-05T05:05:22.787Z,48.60
2023-04-05T05:08:12.672Z,48.70
2023-04-05T05:11:08.844Z,48.70
2023-04-05T05:13:58.163Z,48.80
2023-04-05T05:16:49.614Z,48.80
2023-04-05T05:19:40.367Z,48.80
2023-04-05T05:22:29.736Z,48.80
2023-04-05T05:25:19.535Z,48.80
2023-04-05T05:28:10.255Z,48.80
2023-04-05T05:30:59.685Z,48.90
2023-04-05T05:33:50.563Z,49.00
2023-04-05T05:36:39.871Z,49.00
2023-04-05T05:39:29.321Z,49.10
2023-04-05T05:42:19.150Z,49.20
2023-04-05T05:45:11.916Z,49.30
2023-04-05T05:48:01.410Z,49.40
2023-04-05T05:50:50.884Z,49.50
2023-04-05T05:53:41.262Z,49.80
2023-04-05T05:56:30.526Z,50.10
2023-04-05T05:59:19.955Z,50.90
2023-04-05T06:02:11.309Z,52.20
2023-04-05T06:05:02.249Z,53.90
2023-04-05T06:07:51.638Z,55.20
2023-04-05T06:10:41.250Z,55.70
2023-04-05T06:13:31.519Z,56.40
2023-04-05T06:16:20.893Z,56.30
2023-04-05T06:19:12.106Z,57.10
2023-04-05T06:22:01.469Z,57.80
2023-04-05T06:24:50.848Z,58.20
2023-04-05T06:27:40.211Z,58.70
2023-04-05T06:30:29.542Z,58.70
2023-04-05T06:33:19.017Z,58.60
2023-04-05T06:36:10.640Z,58.70
2023-04-05T06:39:00.497Z,58.40
2023-04-05T06:41:49.857Z,58.80
2023-04-05T06:44:39.250Z,58.70
2023-04-05T06:47:28.695Z,58.50
2023-04-05T06:50:18.155Z,58.40
2023-04-05T06:53:08.963Z,58.20
2023-04-05T06:56:00.148Z,57.90
2023-04-05T06:58:49.654Z,57.90
2023-04-05T07:01:39.103Z,57.80
2023-04-05T07:04:32.739Z,57.60
2023-04-05T07:07:22.215Z,57.40
2023-04-05T07:10:13.295Z,57.30
2023-04-05T07:13:02.683Z,56.80
2023-04-05T07:15:52.592Z,57.00
2023-04-05T07:18:42.008Z,56.70
2023-04-05T07:21:31.425Z,56.20
2023-04-05T07:24:21.215Z,56.00
2023-04-05T07:27:12.158Z,56.30
2023-04-05T07:30:01.725Z,54.80
2023-04-05T07:32:51.282Z,54.60
2023-04-05T07:35:41.016Z,54.30
2023-04-05T07:38:31.028Z,53.90
2023-04-05T07:41:20.656Z,53.50
2023-04-05T07:44:11.769Z,53.10
2023-04-05T07:47:01.103Z,52.50
2023-04-05T07:49:50.974Z,52.50
2023-04-05T07:52:40.489Z,52.10
2023-04-05T07:55:29.819Z,51.90
2023-04-05T07:58:19.147Z,51.70
2023-04-05T08:01:11.532Z,51.50
2023-04-05T08:04:00.854Z,49.40
2023-04-05T08:06:50.487Z,48.90
2023-04-05T08:09:39.956Z,47.70
2023-04-05T08:12:29.490Z,46.60
2023-04-05T08:15:18.907Z,45.20
2023-04-05T08:18:09.666Z,44.70
2023-04-05T08:20:59.374Z,44.10
2023-04-05T08:23:50.027Z,44.30
2023-04-05T08:26:39.617Z,45.40
2023-04-05T08:29:28.971Z,46.00
2023-04-05T08:32:18.318Z,45.10
2023-04-05T08:35:10.363Z,43.80
2023-04-05T08:37:59.931Z,42.50
2023-04-05T08:40:50.053Z,41.80
2023-04-05T08:43:58.034Z,41.10
2023-04-05T08:46:48.295Z,40.00
2023-04-05T08:49:37.713Z,40.50
2023-04-05T08:52:28.850Z,41.10
2023-04-05T08:55:18.581Z,41.20
2023-04-05T08:58:15.462Z,41.00
2023-04-05T09:01:07.317Z,40.70
2023-04-05T09:03:58.588Z,40.70
2023-04-05T09:06:49.706Z,42.60
2023-04-05T09:09:43.925Z,44.60
2023-04-05T09:12:33.708Z,44.70
2023-04-05T09:15:27.050Z,44.10
2023-04-05T09:18:26.069Z,43.10
2023-04-05T09:21:17.636Z,42.10
2023-04-05T09:24:08.044Z,41.10
2023-04-05T09:27:06.644Z,40.40
2023-04-05T09:29:56.158Z,39.20
2023-04-05T09:32:48.621Z,39.70
2023-04-05T09:35:38.608Z,39.50
2023-04-05T09:38:47.546Z,39.40
2023-04-05T09:41:37.896Z,38.60
2023-04-05T09:44:29.377Z,39.90
2023-04-05T09:47:20.429Z,40.60
2023-04-05T09:50:21.593Z,41.90
2023-04-05T09:53:16.328Z,40.60
2023-04-05T09:56:12.027Z,41.00
2023-04-05T09:59:04.495Z,40.20
2023-04-05T10:01:55.446Z,40.00
2023-04-05T10:04:48.512Z,39.50
2023-04-05T10:07:39.017Z,39.10
2023-04-05T10:10:28.649Z,38.80
2023-04-05T10:13:19.964Z,38.50
2023-04-05T10:16:14.658Z,38.10
2023-04-05T10:19:11.851Z,37.70
2023-04-05T10:22:04.631Z,37.60
2023-04-05T10:25:00.861Z,37.80
2023-04-05T10:27:56.536Z,37.70
2023-04-05T10:30:49.641Z,37.40
2023-04-05T10:33:47.468Z,37.50
2023-04-05T10:36:46.682Z,37.40
2023-04-05T10:39:42.196Z,37.30
2023-04-05T10:42:43.240Z,37.50
2023-04-05T10:45:35.742Z,37.20
2023-04-05T10:48:40.064Z,37.50
2023-04-05T10:51:29.954Z,37.10
2023-04-05T10:54:21.406Z,37.60
2023-04-05T10:57:12.618Z,37.50
2023-04-05T11:00:03.362Z,37.80
2023-04-05T11:02:57.053Z,37.50
2023-04-05T11:05:46.508Z,37.60
2023-04-05T11:08:36.020Z,38.00
2023-04-05T11:11:27.729Z,38.10
2023-04-05T11:14:22.341Z,38.50
2023-04-05T11:17:26.553Z,38.30
2023-04-05T11:20:16.128Z,36.30
2023-04-05T11:23:05.943Z,37.70
2023-04-05T11:25:59.825Z,37.90
2023-04-05T11:28:59.285Z,37.90
2023-04-05T11:32:13.530Z,37.60
2023-04-05T11:35:07.964Z,37.50
2023-04-05T11:38:09.822Z,37.90
2023-04-05T11:41:08.998Z,37.50
2023-04-05T11:44:00.496Z,37.60
2023-04-05T11:46:50.588Z,37.80
2023-04-05T11:49:40.421Z,37.60
2023-04-05T11:52:29.771Z,37.80
2023-04-05T11:55:28.211Z,37.90
2023-04-05T11:58:21.485Z,37.50
2023-04-05T12:01:16.619Z,37.90
2023-04-05T12:04:09.196Z,37.90
2023-04-05T12:07:16.940Z,37.90
2023-04-05T12:10:09.686Z,37.60
2023-04-05T12:12:58.974Z,37.90
2023-04-05T12:15:50.545Z,38.20
2023-04-05T12:18:47.584Z,38.10
2023-04-05T12:21:40.913Z,38.00
2023-04-05T12:24:31.503Z,38.20
2023-04-05T12:27:20.956Z,38.40
2023-04-05T12:30:18.722Z,38.20
2023-04-05T12:33:11.044Z,37.70
2023-04-05T12:36:07.210Z,37.90
2023-04-05T12:38:56.613Z,37.90
2023-04-05T12:41:46.220Z,38.20
2023-04-05T12:44:36.124Z,38.10
2023-04-05T12:47:25.542Z,38.00
2023-04-05T12:50:16.998Z,38.00
2023-04-05T12:53:08.783Z,37.80
2023-04-05T12:55:59.908Z,37.50
2023-04-05T12:58:51.559Z,37.40
2023-04-05T13:01:41.009Z,37.20
2023-04-05T13:04:30.679Z,37.30
2023-04-05T13:07:19.979Z,37.10
2023-04-05T13:10:12.114Z,37.00
2023-04-05T13:13:01.523Z,37.10
2023-04-05T13:15:52.177Z,37.10
2023-04-05T13:18:42.041Z,37.20
2023-04-05T13:21:31.423Z,37.20
2023-04-05T13:24:20.877Z,37.30
2023-04-05T13:27:11.596Z,37.10
2023-04-05T13:30:01.033Z,36.90
2023-04-05T13:32:50.403Z,36.90
2023-04-05T13:35:39.992Z,36.90
2023-04-05T13:38:29.513Z,36.90
2023-04-05T13:41:18.911Z,36.80
2023-04-05T13:44:09.632Z,36.80
2023-04-05T13:46:59.021Z,36.70
2023-04-05T13:49:48.583Z,36.70
2023-04-05T13:52:38.049Z,36.50
2023-04-05T13:55:27.613Z,36.60
2023-04-05T13:58:16.996Z,36.60
2023-04-05T14:01:07.917Z,36.60
2023-04-05T14:03:57.484Z,36.70
2023-04-05T14:06:47.393Z,36.60
2023-04-05T14:09:36.956Z,36.70
2023-04-05T14:12:26.480Z,36.80
2023-04-05T14:15:15.941Z,36.90
2023-04-05T14:18:06.941Z,37.00
2023-04-05T14:20:57.423Z,37.10
2023-04-05T14:23:47.756Z,37.20
2023-04-05T14:26:37.623Z,37.10
2023-04-05T14:29:27.109Z,37.20
2023-04-05T14:32:16.520Z,37.20
2023-04-05T14:35:09.087Z,37.10
2023-04-05T14:37:58.472Z,37.00
2023-04-05T14:40:47.975Z,36.50
2023-04-05T14:43:38.637Z,36.20
2023-04-05T14:46:28.209Z,36.00
2023-04-05T14:49:17.982Z,35.80
2023-04-05T14:52:08.773Z,35.80
2023-04-05T14:54:58.242Z,35.80
2023-04-05T14:57:47.750Z,35.90
2023-04-05T15:00:37.169Z,35.90
2023-04-05T15:03:27.097Z,35.90
2023-04-05T15:06:16.779Z,35.90
2023-04-05T15:09:07.520Z,35.90
2023-04-05T15:11:57.032Z,35.90
2023-04-05T15:14:46.645Z,35.90
2023-04-05T15:17:36.041Z,36.00
2023-04-05T15:20:25.766Z,36.20
2023-04-05T15:23:15.448Z,36.20
2023-04-05T15:26:06.233Z,36.30
2023-04-05T15:28:55.768Z,36.40
2023-04-05T15:31:45.260Z,36.40
2023-04-05T15:34:34.833Z,36.40
2023-04-05T15:37:24.281Z,36.40
2023-04-05T15:40:13.851Z,36.40
2023-04-05T15:43:04.678Z,36.40
2023-04-05T15:45:54.130Z,36.50
2023-04-05T15:48:44.040Z,36.60
2023-04-05T15:51:35.918Z,36.70
2023-04-05T15:54:25.423Z,36.70
2023-04-05T15:57:14.790Z,36.60
2023-04-05T16:00:08.686Z,36.60
2023-04-05T16:03:00.676Z,36.70
2023-04-05T16:05:50.483Z,36.60
2023-04-05T16:08:39.938Z,37.10
2023-04-05T16:11:29.511Z,36.50
2023-04-05T16:14:19.077Z,36.50
2023-04-05T16:17:09.903Z,36.60
2023-04-05T16:19:59.505Z,36.70
2023-04-05T16:22:48.875Z,36.70
2023-04-05T16:25:38.540Z,36.70
2023-04-05T16:28:27.958Z,36.80
2023-04-05T16:31:17.424Z,36.70
2023-04-05T16:34:08.208Z,36.80
2023-04-05T16:36:57.602Z,36.90
2023-04-05T16:39:47.024Z,36.90
2023-04-05T16:42:36.415Z,37.60
2023-04-05T16:45:28.667Z,37.00
2023-04-05T16:48:18.069Z,36.80
2023-04-05T16:51:08.903Z,36.70
2023-04-05T16:53:58.349Z,36.70
2023-04-05T16:56:47.811Z,36.80
2023-04-05T16:59:37.418Z,36.80
2023-04-05T17:02:27.229Z,37.00
2023-04-05T17:05:17.113Z,37.10
2023-04-05T17:08:08.105Z,37.10
2023-04-05T17:10:57.544Z,37.10
2023-04-05T17:13:47.407Z,37.00
2023-04-05T17:16:37.031Z,36.90
2023-04-05T17:19:26.559Z,36.80
2023-04-05T17:22:16.175Z,36.70
2023-04-05T17:25:08.194Z,36.80
2023-04-05T17:27:57.534Z,36.70
2023-04-05T17:30:47.256Z,36.70
2023-04-05T17:33:36.744Z,36.70
2023-04-05T17:36:28.138Z,36.60
2023-04-05T17:39:18.045Z,36.60
2023-04-05T17:42:08.827Z,36.30
2023-04-05T17:44:58.164Z,36.20
2023-04-05T17:47:47.648Z,36.10
2023-04-05T17:50:38.325Z,36.10
2023-04-05T17:53:27.685Z,37.00
2023-04-05T17:56:17.056Z,37.00
2023-04-05T17:59:08.125Z,37.00
2023-04-05T18:01:58.260Z,37.10
2023-04-05T18:04:47.652Z,37.10
2023-04-05T18:07:37.673Z,37.10
2023-04-05T18:10:27.160Z,37.10
2023-04-05T18:13:16.887Z,37.10
2023-04-05T18:16:07.747Z,37.10
2023-04-05T18:18:57.333Z,37.00
2023-04-05T18:21:46.700Z,37.10
2023-04-05T18:24:36.124Z,37.00
2023-04-05T18:27:26.019Z,37.10
2023-04-05T18:30:16.074Z,37.00
2023-04-05T18:33:07.112Z,37.00
2023-04-05T18:35:56.527Z,37.10
2023-04-05T18:38:46.045Z,37.00
2023-04-05T18:41:35.431Z,37.20
2023-04-05T18:44:24.973Z,37.10
2023-04-05T18:47:14.382Z,37.20
2023-04-05T18:50:07.690Z,37.30
2023-04-05T18:52:57.221Z,37.30
2023-04-05T18:55:46.697Z,37.40
2023-04-05T18:58:36.525Z,37.50
2023-04-05T19:01:26.039Z,37.50
2023-04-05T19:04:16.544Z,37.50
2023-04-05T19:07:07.432Z,37.60
2023-04-05T19:09:57.205Z,37.80
2023-04-05T19:12:46.681Z,37.80
2023-04-05T19:15:38.359Z,37.90
2023-04-05T19:18:29.037Z,38.00
2023-04-05T19:21:18.543Z,38.10
2023-04-05T19:24:09.977Z,38.20
2023-04-05T19:26:59.524Z,38.40
2023-04-05T19:29:49.346Z,38.40
2023-04-05T19:32:38.893Z,38.50
2023-04-05T19:35:28.674Z,38.50
2023-04-05T19:38:18.235Z,38.50
2023-04-05T19:41:09.150Z,38.50
2023-04-05T19:43:58.574Z,38.60
2023-04-05T19:46:48.036Z,38.50
2023-04-05T19:49:40.343Z,38.60
2023-04-05T19:52:39.539Z,38.60
2023-04-05T19:55:33.058Z,38.70
2023-04-05T19:58:29.079Z,38.70
2023-04-05T20:01:34.532Z,38.70
2023-04-05T20:04:26.277Z,38.90
2023-04-05T20:07:15.738Z,38.80
2023-04-05T20:10:16.993Z,38.80
2023-04-05T20:13:08.426Z,38.90
2023-04-05T20:15:59.226Z,38.90
2023-04-05T20:18:50.293Z,39.00
2023-04-05T20:21:39.978Z,39.10
2023-04-05T20:24:30.404Z,38.90
2023-04-05T20:27:19.955Z,39.10
2023-04-05T20:30:12.685Z,39.10
2023-04-05T20:33:03.498Z,39.20
2023-04-05T20:35:53.247Z,39.30
2023-04-05T20:38:44.591Z,39.30
2023-04-05T20:41:37.365Z,39.30
2023-04-05T20:44:26.909Z,39.30
2023-04-05T20:47:16.360Z,39.30
2023-04-05T20:50:08.558Z,39.50
2023-04-05T20:52:58.751Z,39.50
2023-04-05T20:55:48.305Z,39.50
2023-04-05T20:58:40.065Z,39.40
2023-04-05T21:01:29.527Z,39.70
2023-04-05T21:04:18.947Z,39.60
2023-04-05T21:07:09.754Z,39.80
2023-04-05T21:09:59.251Z,39.80
2023-04-05T21:12:48.886Z,39.70
2023-04-05T21:15:38.596Z,39.80
2023-04-05T21:18:28.615Z,39.60
2023-04-05T21:21:18.416Z,39.60
2023-04-05T21:24:09.708Z,39.80
2023-04-05T21:27:01.249Z,39.80
2023-04-05T21:29:51.448Z,39.70
2023-04-05T21:32:41.309Z,39.70
2023-04-05T21:35:31.386Z,39.70
2023-04-05T21:38:20.982Z,39.90
2023-04-05T21:41:12.138Z,40.00
2023-04-05T21:44:01.508Z,40.00
2023-04-05T21:46:51.009Z,39.90
2023-04-05T21:49:41.933Z,40.00
2023-04-05T21:52:31.751Z,40.20
2023-04-05T21:55:21.620Z,40.20
2023-04-05T21:58:12.768Z,40.80
2023-04-05T22:01:02.317Z,40.80
2023-04-05T22:03:51.771Z,41.40
2023-04-05T22:06:41.779Z,41.80
2023-04-05T22:09:31.813Z,41.40
2023-04-05T22:12:22.406Z,41.10
2023-04-05T22:15:13.650Z,41.20
2023-04-05T22:18:04.090Z,41.10
2023-04-05T22:20:53.694Z,41.30
2023-04-05T22:23:43.206Z,41.40
2023-04-05T22:26:32.626Z,41.40
2023-04-05T22:29:22.472Z,41.50
2023-04-05T22:32:13.705Z,41.40
2023-04-05T22:35:04.490Z,41.40
2023-04-05T22:37:54.085Z,41.40
2023-04-05T22:40:45.379Z,41.40
2023-04-05T22:43:34.964Z,41.40
2023-04-05T22:46:24.451Z,41.50
2023-04-05T22:49:15.258Z,41.50
2023-04-05T22:52:04.599Z,42.90
2023-04-05T22:54:53.969Z,43.10
2023-04-05T22:57:43.421Z,42.90
2023-04-05T23:00:32.900Z,42.50
2023-04-05T23:03:22.306Z,42.30
2023-04-05T23:06:13.051Z,42.20
2023-04-05T23:09:04.302Z,42.00
2023-04-05T23:11:53.629Z,41.90
2023-04-05T23:14:43.048Z,41.70
2023-04-05T23:17:32.576Z,41.70
2023-04-05T23:20:22.187Z,41.80
2023-04-05T23:23:13.687Z,41.90
2023-04-05T23:26:03.202Z,42.10
2023-04-05T23:28:52.554Z,42.20
2023-04-05T23:31:42.103Z,42.20
2023-04-05T23:34:31.534Z,42.00
2023-04-05T23:37:20.992Z,42.20
2023-04-05T23:40:13.147Z,42.10
2023-04-05T23:43:02.514Z,42.00
2023-04-05T23:45:51.925Z,42.10
2023-04-05T23:48:41.295Z,42.10
2023-04-05T23:51:31.802Z,41.90
2023-04-05T23:54:21.449Z,41.90
2023-04-05T23:57:12.416Z,42.00
